^^
Station Historical Data
Daily Summary for August 12, 2017 Units:  Both    English   Metric
« Previous Day
Next Day »
Daily Weekly Monthly Yearly Custom
  High: Low: Average:
Temperature: 77.2 °F /  25.1 °C 44.6 °F /  7 °C 60 °F /  15.6 °C
Dew Point: 29.1 °F /  -1.6 °C 20.3 °F /  -6.5 °C 23.1 °F /  -4.9 °C
Humidity: 41% 12% 26%
Wind Speed: 4.9mph /  7.9km/h - 0.4mph /  0.6km/h
Wind Gust: 8.0mph /  12.9km/h - -
Wind- - SW
Pressure: 30.42 in /  1030 hPa 30.27 in /  1024.9 hPa -
Precipitation: 0.00 in /  0 mm    
Historical Graphs
 
 
Tabular Data for August 12, 2017
Time Temperature Dew Point Pressure Wind Wind Speed Wind Gust Humidity Rainfall Rate (Hourly) solar Conditions
00:00 50.2 °F /  10.1 °C 22.1 °F /  -5.5 °C 30.38in /  1028.7hPa Calm   1.0mph /  1.6km/h 33% 0.00in /  0mm 0.0 W/m2
00:06 50.2 °F /  10.1 °C 22.1 °F /  -5.5 °C 30.38in /  1028.7hPa Calm     33% 0.00in /  0mm 0.0 W/m2
00:12 50.2 °F /  10.1 °C 22.1 °F /  -5.5 °C 30.38in /  1028.7hPa Calm   3.0mph /  4.8km/h 33% 0.00in /  0mm 0.0 W/m2
00:18 50.2 °F /  10.1 °C 22.1 °F /  -5.5 °C 30.38in /  1028.7hPa Calm     33% 0.00in /  0mm 0.0 W/m2
00:24 50.2 °F /  10.1 °C 22.1 °F /  -5.5 °C 30.38in /  1028.7hPa Calm     33% 0.00in /  0mm 0.0 W/m2
00:30 50.0 °F /  10 °C 22.6 °F /  -5.2 °C 30.38in /  1028.7hPa Calm     34% 0.00in /  0mm 0.0 W/m2
00:36 49.8 °F /  9.9 °C 22.6 °F /  -5.2 °C 30.38in /  1028.7hPa Calm   2.0mph /  3.2km/h 34% 0.00in /  0mm 0.0 W/m2
00:42 49.6 °F /  9.8 °C 21.7 °F /  -5.7 °C 30.38in /  1028.7hPa Calm     33% 0.00in /  0mm 0.0 W/m2
00:48 49.6 °F /  9.8 °C 21.7 °F /  -5.7 °C 30.37in /  1028.3hPa Calm     33% 0.00in /  0mm 0.0 W/m2
00:54 49.6 °F /  9.8 °C 22.5 °F /  -5.3 °C 30.37in /  1028.3hPa SE 0.9mph /  1.4km/h 1.0mph /  1.6km/h 34% 0.00in /  0mm 0.0 W/m2
01:00 49.8 °F /  9.9 °C 21.9 °F /  -5.6 °C 30.37in /  1028.3hPa Calm     33% 0.00in /  0mm 0.0 W/m2
01:06 49.8 °F /  9.9 °C 21.9 °F /  -5.6 °C 30.37in /  1028.3hPa Calm     33% 0.00in /  0mm 0.0 W/m2
01:12 49.8 °F /  9.9 °C 22.6 °F /  -5.2 °C 30.38in /  1028.7hPa Calm     34% 0.00in /  0mm 0.0 W/m2
01:18 49.5 °F /  9.7 °C 22.3 °F /  -5.4 °C 30.37in /  1028.3hPa Calm     34% 0.00in /  0mm 0.0 W/m2
01:24 48.9 °F /  9.4 °C 22.5 °F /  -5.3 °C 30.37in /  1028.3hPa Calm     35% 0.00in /  0mm 0.0 W/m2
01:30 48.7 °F /  9.3 °C 22.3 °F /  -5.4 °C 30.37in /  1028.3hPa Calm   1.0mph /  1.6km/h 35% 0.00in /  0mm 0.0 W/m2
01:36 48.4 °F /  9.1 °C 21.9 °F /  -5.6 °C 30.37in /  1028.3hPa Calm     35% 0.00in /  0mm 0.0 W/m2
01:42 48.2 °F /  9 °C 22.5 °F /  -5.3 °C 30.37in /  1028.3hPa Calm   1.0mph /  1.6km/h 36% 0.00in /  0mm 0.0 W/m2
01:48 48.0 °F /  8.9 °C 22.3 °F /  -5.4 °C 30.37in /  1028.3hPa ESE 0.9mph /  1.4km/h 2.0mph /  3.2km/h 36% 0.00in /  0mm 0.0 W/m2
01:54 48.0 °F /  8.9 °C 22.3 °F /  -5.4 °C 30.37in /  1028.3hPa ENE 2.9mph /  4.7km/h 4.0mph /  6.4km/h 36% 0.00in /  0mm 0.0 W/m2
02:00 48.0 °F /  8.9 °C 21.7 °F /  -5.7 °C 30.37in /  1028.3hPa Calm   3.0mph /  4.8km/h 35% 0.00in /  0mm 0.0 W/m2
02:06 48.4 °F /  9.1 °C 21.9 °F /  -5.6 °C 30.37in /  1028.3hPa Calm   1.0mph /  1.6km/h 35% 0.00in /  0mm 0.0 W/m2
02:12 48.4 °F /  9.1 °C 22.6 °F /  -5.2 °C 30.37in /  1028.3hPa Calm     36% 0.00in /  0mm 0.0 W/m2
02:18 48.4 °F /  9.1 °C 22.6 °F /  -5.2 °C 30.37in /  1028.3hPa Calm   3.0mph /  4.8km/h 36% 0.00in /  0mm 0.0 W/m2
02:24 48.6 °F /  9.2 °C 22.8 °F /  -5.1 °C 30.37in /  1028.3hPa Calm   3.0mph /  4.8km/h 36% 0.00in /  0mm 0.0 W/m2
02:30 48.9 °F /  9.4 °C 22.5 °F /  -5.3 °C 30.37in /  1028.3hPa Calm   3.0mph /  4.8km/h 35% 0.00in /  0mm 0.0 W/m2
02:36 49.3 °F /  9.6 °C 22.8 °F /  -5.1 °C 30.37in /  1028.3hPa Calm   1.0mph /  1.6km/h 35% 0.00in /  0mm 0.0 W/m2
02:42 49.3 °F /  9.6 °C 22.1 °F /  -5.5 °C 30.37in /  1028.3hPa ENE 0.9mph /  1.4km/h 2.0mph /  3.2km/h 34% 0.00in /  0mm 0.0 W/m2
02:48 49.5 °F /  9.7 °C 22.3 °F /  -5.4 °C 30.37in /  1028.3hPa Calm   1.0mph /  1.6km/h 34% 0.00in /  0mm 0.0 W/m2
02:54 49.6 °F /  9.8 °C 22.5 °F /  -5.3 °C 30.37in /  1028.3hPa Calm   1.0mph /  1.6km/h 34% 0.00in /  0mm 0.0 W/m2
03:00 49.6 °F /  9.8 °C 22.5 °F /  -5.3 °C 30.37in /  1028.3hPa Calm     34% 0.00in /  0mm 0.0 W/m2
03:06 49.6 °F /  9.8 °C 22.5 °F /  -5.3 °C 30.37in /  1028.3hPa Calm     34% 0.00in /  0mm 0.0 W/m2
03:12 49.5 °F /  9.7 °C 22.3 °F /  -5.4 °C 30.37in /  1028.3hPa East 0.9mph /  1.4km/h 1.0mph /  1.6km/h 34% 0.00in /  0mm 0.0 W/m2
03:18 49.5 °F /  9.7 °C 22.3 °F /  -5.4 °C 30.37in /  1028.3hPa Calm     34% 0.00in /  0mm 0.0 W/m2
03:24 49.5 °F /  9.7 °C 23.0 °F /  -5 °C 30.37in /  1028.3hPa East 0.9mph /  1.4km/h 1.0mph /  1.6km/h 35% 0.00in /  0mm 0.0 W/m2
03:30 49.3 °F /  9.6 °C 22.8 °F /  -5.1 °C 30.37in /  1028.3hPa Calm     35% 0.00in /  0mm 0.0 W/m2
03:36 49.3 °F /  9.6 °C 22.8 °F /  -5.1 °C 30.37in /  1028.3hPa Calm   1.0mph /  1.6km/h 35% 0.00in /  0mm 0.0 W/m2
03:42 49.3 °F /  9.6 °C 22.8 °F /  -5.1 °C 30.37in /  1028.3hPa Calm   1.0mph /  1.6km/h 35% 0.00in /  0mm 0.0 W/m2
03:48 49.5 °F /  9.7 °C 23.0 °F /  -5 °C 30.37in /  1028.3hPa Calm   3.0mph /  4.8km/h 35% 0.00in /  0mm 0.0 W/m2
03:54 49.5 °F /  9.7 °C 23.0 °F /  -5 °C 30.36in /  1028hPa East 0.9mph /  1.4km/h 2.0mph /  3.2km/h 35% 0.00in /  0mm 0.0 W/m2
04:00 49.5 °F /  9.7 °C 23.0 °F /  -5 °C 30.36in /  1028hPa Calm   2.0mph /  3.2km/h 35% 0.00in /  0mm 0.0 W/m2
04:06 49.5 °F /  9.7 °C 22.3 °F /  -5.4 °C 30.36in /  1028hPa ENE 0.9mph /  1.4km/h 2.0mph /  3.2km/h 34% 0.00in /  0mm 0.0 W/m2
04:12 49.5 °F /  9.7 °C 22.3 °F /  -5.4 °C 30.36in /  1028hPa Calm   4.0mph /  6.4km/h 34% 0.00in /  0mm 0.0 W/m2
04:18 49.5 °F /  9.7 °C 22.3 °F /  -5.4 °C 30.36in /  1028hPa Calm   4.0mph /  6.4km/h 34% 0.00in /  0mm 0.0 W/m2
04:24 49.3 °F /  9.6 °C 22.8 °F /  -5.1 °C 30.36in /  1028hPa Calm   1.0mph /  1.6km/h 35% 0.00in /  0mm 0.0 W/m2
04:30 48.9 °F /  9.4 °C 22.5 °F /  -5.3 °C 30.37in /  1028.3hPa Calm     35% 0.00in /  0mm 0.0 W/m2
04:36 48.7 °F /  9.3 °C 22.3 °F /  -5.4 °C 30.37in /  1028.3hPa Calm   1.0mph /  1.6km/h 35% 0.00in /  0mm 0.0 W/m2
04:42 48.6 °F /  9.2 °C 22.1 °F /  -5.5 °C 30.37in /  1028.3hPa Calm     35% 0.00in /  0mm 0.0 W/m2
04:48 48.4 °F /  9.1 °C 22.6 °F /  -5.2 °C 30.36in /  1028hPa Calm     36% 0.00in /  0mm 0.0 W/m2
04:54 48.4 °F /  9.1 °C 22.6 °F /  -5.2 °C 30.37in /  1028.3hPa Calm     36% 0.00in /  0mm 0.0 W/m2
05:00 48.0 °F /  8.9 °C 22.3 °F /  -5.4 °C 30.37in /  1028.3hPa Calm     36% 0.00in /  0mm 0.0 W/m2
05:06 47.8 °F /  8.8 °C 22.1 °F /  -5.5 °C 30.37in /  1028.3hPa Calm     36% 0.00in /  0mm 0.0 W/m2
05:12 47.7 °F /  8.7 °C 22.6 °F /  -5.2 °C 30.37in /  1028.3hPa Calm     37% 0.00in /  0mm 0.0 W/m2
05:18 46.9 °F /  8.3 °C 22.1 °F /  -5.5 °C 30.38in /  1028.7hPa Calm     37% 0.00in /  0mm 0.0 W/m2
05:24 46.4 °F /  8 °C 22.1 °F /  -5.5 °C 30.38in /  1028.7hPa Calm     38% 0.00in /  0mm 0.0 W/m2
05:30 46.0 °F /  7.8 °C 22.5 °F /  -5.3 °C 30.38in /  1028.7hPa Calm     39% 0.00in /  0mm 0.0 W/m2
05:36 45.7 °F /  7.6 °C 22.8 °F /  -5.1 °C 30.38in /  1028.7hPa Calm     40% 0.00in /  0mm 0.0 W/m2
05:42 45.3 °F /  7.4 °C 21.7 °F /  -5.7 °C 30.38in /  1028.7hPa Calm     39% 0.00in /  0mm 0.0 W/m2
05:48 45.1 °F /  7.3 °C 22.3 °F /  -5.4 °C 30.38in /  1028.7hPa Calm     40% 0.00in /  0mm 0.0 W/m2
05:54 45.1 °F /  7.3 °C 22.3 °F /  -5.4 °C 30.39in /  1029hPa Calm     40% 0.00in /  0mm 0.0 W/m2
06:00 44.8 °F /  7.1 °C 22.5 °F /  -5.3 °C 30.39in /  1029hPa Calm     41% 0.00in /  0mm 0.0 W/m2
06:06 44.6 °F /  7 °C 22.3 °F /  -5.4 °C 30.39in /  1029hPa Calm     41% 0.00in /  0mm 0.0 W/m2
06:12 44.6 °F /  7 °C 22.3 °F /  -5.4 °C 30.39in /  1029hPa Calm     41% 0.00in /  0mm 0.0 W/m2
06:18 44.8 °F /  7.1 °C 22.5 °F /  -5.3 °C 30.39in /  1029hPa Calm     41% 0.00in /  0mm 0.0 W/m2
06:24 45.0 °F /  7.2 °C 22.6 °F /  -5.2 °C 30.39in /  1029hPa Calm     41% 0.00in /  0mm 5.0 W/m2
06:30 45.1 °F /  7.3 °C 22.3 °F /  -5.4 °C 30.39in /  1029hPa Calm   2.0mph /  3.2km/h 40% 0.00in /  0mm 9.0 W/m2
06:36 45.3 °F /  7.4 °C 22.5 °F /  -5.3 °C 30.39in /  1029hPa Calm   3.0mph /  4.8km/h 40% 0.00in /  0mm 11.0 W/m2
06:42 45.3 °F /  7.4 °C 22.5 °F /  -5.3 °C 30.40in /  1029.3hPa Calm   2.0mph /  3.2km/h 40% 0.00in /  0mm 12.0 W/m2
06:48 45.3 °F /  7.4 °C 22.5 °F /  -5.3 °C 30.40in /  1029.3hPa ESE 0.9mph /  1.4km/h 2.0mph /  3.2km/h 40% 0.00in /  0mm 14.0 W/m2
06:54 45.5 °F /  7.5 °C 22.6 °F /  -5.2 °C 30.40in /  1029.3hPa Calm   1.0mph /  1.6km/h 40% 0.00in /  0mm 16.0 W/m2
07:00 45.7 °F /  7.6 °C 22.8 °F /  -5.1 °C 30.40in /  1029.3hPa Calm   2.0mph /  3.2km/h 40% 0.00in /  0mm 18.0 W/m2
07:06 46.0 °F /  7.8 °C 22.5 °F /  -5.3 °C 30.40in /  1029.3hPa Calm     39% 0.00in /  0mm 19.0 W/m2
07:12 46.8 °F /  8.2 °C 23.2 °F /  -4.9 °C 30.40in /  1029.3hPa Calm     39% 0.00in /  0mm 21.0 W/m2
07:19 47.5 °F /  8.6 °C 23.2 °F /  -4.9 °C 30.40in /  1029.3hPa Calm   1.0mph /  1.6km/h 38% 0.00in /  0mm 23.0 W/m2
07:25 48.2 °F /  9 °C 23.7 °F /  -4.6 °C 30.40in /  1029.3hPa Calm     38% 0.00in /  0mm 25.0 W/m2
07:32 49.3 °F /  9.6 °C 24.8 °F /  -4 °C 30.40in /  1029.3hPa Calm     38% 0.00in /  0mm 26.0 W/m2
07:39 49.8 °F /  9.9 °C 24.6 °F /  -4.1 °C 30.41in /  1029.7hPa Calm   1.0mph /  1.6km/h 37% 0.00in /  0mm 26.0 W/m2
07:48 50.7 °F /  10.4 °C 24.1 °F /  -4.4 °C 30.41in /  1029.7hPa Calm   2.0mph /  3.2km/h 35% 0.00in /  0mm 28.0 W/m2
07:53 51.4 °F /  10.8 °C 24.6 °F /  -4.1 °C 30.41in /  1029.7hPa Calm     35% 0.00in /  0mm 30.0 W/m2
07:59 52.5 °F /  11.4 °C 25.0 °F /  -3.9 °C 30.42in /  1030hPa Calm   1.0mph /  1.6km/h 34% 0.00in /  0mm 30.0 W/m2
08:05 53.4 °F /  11.9 °C 24.3 °F /  -4.3 °C 30.41in /  1029.7hPa Calm   1.0mph /  1.6km/h 32% 0.00in /  0mm 32.0 W/m2
08:11 54.7 °F /  12.6 °C 24.6 °F /  -4.1 °C 30.41in /  1029.7hPa Calm   1.0mph /  1.6km/h 31% 0.00in /  0mm 33.0 W/m2
08:17 55.4 °F /  13 °C 26.1 °F /  -3.3 °C 30.41in /  1029.7hPa Calm     32% 0.00in /  0mm 33.0 W/m2
08:23 56.1 °F /  13.4 °C 25.2 °F /  -3.8 °C 30.42in /  1030hPa Calm     30% 0.00in /  0mm 35.0 W/m2
08:29 57.0 °F /  13.9 °C 25.0 °F /  -3.9 °C 30.42in /  1030hPa Calm     29% 0.00in /  0mm 54.0 W/m2
08:35 58.3 °F /  14.6 °C 27.0 °F /  -2.8 °C 30.41in /  1029.7hPa Calm   3.0mph /  4.8km/h 30% 0.00in /  0mm 450.0 W/m2
08:41 60.1 °F /  15.6 °C 26.8 °F /  -2.9 °C 30.41in /  1029.7hPa Calm     28% 0.00in /  0mm 471.0 W/m2
08:47 61.9 °F /  16.6 °C 27.5 °F /  -2.5 °C 30.41in /  1029.7hPa Calm   1.0mph /  1.6km/h 27% 0.00in /  0mm 489.0 W/m2
08:53 63.9 °F /  17.7 °C 27.3 °F /  -2.6 °C 30.41in /  1029.7hPa Calm   1.0mph /  1.6km/h 25% 0.00in /  0mm 508.0 W/m2
08:59 64.8 °F /  18.2 °C 28.0 °F /  -2.2 °C 30.41in /  1029.7hPa Calm     25% 0.00in /  0mm 526.0 W/m2
09:05 65.5 °F /  18.6 °C 27.7 °F /  -2.4 °C 30.41in /  1029.7hPa Calm   1.0mph /  1.6km/h 24% 0.00in /  0mm 545.0 W/m2
09:11 66.4 °F /  19.1 °C 27.5 °F /  -2.5 °C 30.41in /  1029.7hPa NNW 0.9mph /  1.4km/h 1.0mph /  1.6km/h 23% 0.00in /  0mm 563.0 W/m2
09:17 67.5 °F /  19.7 °C 28.4 °F /  -2 °C 30.41in /  1029.7hPa Calm   2.0mph /  3.2km/h 23% 0.00in /  0mm 580.0 W/m2
09:23 68.2 °F /  20.1 °C 27.9 °F /  -2.3 °C 30.40in /  1029.3hPa Calm   1.0mph /  1.6km/h 22% 0.00in /  0mm 598.0 W/m2
09:29 68.4 °F /  20.2 °C 28.0 °F /  -2.2 °C 30.40in /  1029.3hPa Calm   2.0mph /  3.2km/h 22% 0.00in /  0mm 613.0 W/m2
09:36 69.1 °F /  20.6 °C 28.6 °F /  -1.9 °C 30.40in /  1029.3hPa Calm   3.0mph /  4.8km/h 22% 0.00in /  0mm 626.0 W/m2
09:42 69.8 °F /  21 °C 28.0 °F /  -2.2 °C 30.40in /  1029.3hPa Calm   1.0mph /  1.6km/h 21% 0.00in /  0mm 643.0 W/m2
09:48 70.5 °F /  21.4 °C 28.8 °F /  -1.8 °C 30.40in /  1029.3hPa NE 4.0mph /  6.4km/h 4.0mph /  6.4km/h 21% 0.00in /  0mm 659.0 W/m2
09:54 70.9 °F /  21.6 °C 27.9 °F /  -2.3 °C 30.40in /  1029.3hPa WSW 2.0mph /  3.2km/h 2.0mph /  3.2km/h 20% 0.00in /  0mm 670.0 W/m2
10:00 70.5 °F /  21.4 °C 27.5 °F /  -2.5 °C 30.40in /  1029.3hPa West 2.0mph /  3.2km/h 4.0mph /  6.4km/h 20% 0.00in /  0mm 682.0 W/m2
10:06 70.3 °F /  21.3 °C 27.3 °F /  -2.6 °C 30.40in /  1029.3hPa Calm   2.0mph /  3.2km/h 20% 0.00in /  0mm 694.0 W/m2
10:12 71.1 °F /  21.7 °C 29.1 °F /  -1.6 °C 30.39in /  1029hPa West 0.9mph /  1.4km/h 1.0mph /  1.6km/h 21% 0.00in /  0mm 703.0 W/m2
10:18 71.4 °F /  21.9 °C 28.2 °F /  -2.1 °C 30.39in /  1029hPa WSW 0.9mph /  1.4km/h 4.0mph /  6.4km/h 20% 0.00in /  0mm 712.0 W/m2
10:25 71.1 °F /  21.7 °C 26.8 °F /  -2.9 °C 30.39in /  1029hPa NW 2.0mph /  3.2km/h 2.0mph /  3.2km/h 19% 0.00in /  0mm 728.0 W/m2
10:31 71.1 °F /  21.7 °C 26.8 °F /  -2.9 °C 30.38in /  1028.7hPa WSW 4.0mph /  6.4km/h 7.0mph /  11.3km/h 19% 0.00in /  0mm 740.0 W/m2
10:37 71.2 °F /  21.8 °C 26.8 °F /  -2.9 °C 30.38in /  1028.7hPa Calm   1.0mph /  1.6km/h 19% 0.00in /  0mm 744.0 W/m2
10:43 71.8 °F /  22.1 °C 27.3 °F /  -2.6 °C 30.38in /  1028.7hPa WNW 0.9mph /  1.4km/h 3.0mph /  4.8km/h 19% 0.00in /  0mm 756.0 W/m2
10:49 72.1 °F /  22.3 °C 26.2 °F /  -3.2 °C 30.38in /  1028.7hPa Calm   1.0mph /  1.6km/h 18% 0.00in /  0mm 749.0 W/m2
10:55 72.1 °F /  22.3 °C 27.7 °F /  -2.4 °C 30.38in /  1028.7hPa SW 0.9mph /  1.4km/h 5.0mph /  8km/h 19% 0.00in /  0mm 761.0 W/m2
11:01 71.8 °F /  22.1 °C 27.3 °F /  -2.6 °C 30.38in /  1028.7hPa Calm   1.0mph /  1.6km/h 19% 0.00in /  0mm 775.0 W/m2
11:07 72.1 °F /  22.3 °C 27.7 °F /  -2.4 °C 30.37in /  1028.3hPa Calm   3.0mph /  4.8km/h 19% 0.00in /  0mm 779.0 W/m2
11:13 72.7 °F /  22.6 °C 26.8 °F /  -2.9 °C 30.37in /  1028.3hPa NNW 0.9mph /  1.4km/h 6.0mph /  9.7km/h 18% 0.00in /  0mm 780.0 W/m2
11:19 73.4 °F /  23 °C 25.9 °F /  -3.4 °C 30.37in /  1028.3hPa NNW 2.9mph /  4.7km/h 4.0mph /  6.4km/h 17% 0.00in /  0mm 779.0 W/m2
11:25 73.8 °F /  23.2 °C 26.2 °F /  -3.2 °C 30.36in /  1028hPa Calm     17% 0.00in /  0mm 793.0 W/m2
11:32 73.9 °F /  23.3 °C 26.4 °F /  -3.1 °C 30.36in /  1028hPa NNE 2.9mph /  4.7km/h 4.0mph /  6.4km/h 17% 0.00in /  0mm 789.0 W/m2
11:38 74.1 °F /  23.4 °C 25.0 °F /  -3.9 °C 30.36in /  1028hPa NW 2.0mph /  3.2km/h 4.0mph /  6.4km/h 16% 0.00in /  0mm 795.0 W/m2
11:44 74.5 °F /  23.6 °C 23.7 °F /  -4.6 °C 30.35in /  1027.7hPa East 2.0mph /  3.2km/h 4.0mph /  6.4km/h 15% 0.00in /  0mm 793.0 W/m2
11:50 74.7 °F /  23.7 °C 25.5 °F /  -3.6 °C 30.35in /  1027.7hPa Calm   5.0mph /  8km/h 16% 0.00in /  0mm 798.0 W/m2
11:56 74.5 °F /  23.6 °C 25.3 °F /  -3.7 °C 30.35in /  1027.7hPa WSW 4.9mph /  7.9km/h 8.0mph /  12.9km/h 16% 0.00in /  0mm 795.0 W/m2
12:02 73.6 °F /  23.1 °C 24.6 °F /  -4.1 °C 30.35in /  1027.7hPa WSW 4.9mph /  7.9km/h 7.0mph /  11.3km/h 16% 0.00in /  0mm 793.0 W/m2
12:08 73.0 °F /  22.8 °C 24.3 °F /  -4.3 °C 30.35in /  1027.7hPa SW 2.9mph /  4.7km/h 3.0mph /  4.8km/h 16% 0.00in /  0mm 796.0 W/m2
12:14 73.0 °F /  22.8 °C 24.3 °F /  -4.3 °C 30.34in /  1027.3hPa Calm   6.0mph /  9.7km/h 16% 0.00in /  0mm 793.0 W/m2
12:21 72.9 °F /  22.7 °C 24.1 °F /  -4.4 °C 30.34in /  1027.3hPa Calm   5.0mph /  8km/h 16% 0.00in /  0mm 789.0 W/m2
12:27 73.0 °F /  22.8 °C 22.6 °F /  -5.2 °C 30.34in /  1027.3hPa WSW 2.0mph /  3.2km/h 2.0mph /  3.2km/h 15% 0.00in /  0mm 782.0 W/m2
12:33 73.2 °F /  22.9 °C 24.3 °F /  -4.3 °C 30.33in /  1027hPa West 2.0mph /  3.2km/h 4.0mph /  6.4km/h 16% 0.00in /  0mm 779.0 W/m2
12:39 73.6 °F /  23.1 °C 24.6 °F /  -4.1 °C 30.33in /  1027hPa Calm   4.0mph /  6.4km/h 16% 0.00in /  0mm 773.0 W/m2
12:45 73.9 °F /  23.3 °C 23.4 °F /  -4.8 °C 30.33in /  1027hPa Calm   4.0mph /  6.4km/h 15% 0.00in /  0mm 766.0 W/m2
12:51 73.9 °F /  23.3 °C 25.0 °F /  -3.9 °C 30.33in /  1027hPa Calm   4.0mph /  6.4km/h 16% 0.00in /  0mm 759.0 W/m2
12:57 74.5 °F /  23.6 °C 25.3 °F /  -3.7 °C 30.33in /  1027hPa Calm   5.0mph /  8km/h 16% 0.00in /  0mm 754.0 W/m2
13:04 75.0 °F /  23.9 °C 24.3 °F /  -4.3 °C 30.32in /  1026.6hPa WNW 2.0mph /  3.2km/h 5.0mph /  8km/h 15% 0.00in /  0mm 745.0 W/m2
13:10 75.0 °F /  23.9 °C 24.3 °F /  -4.3 °C 30.32in /  1026.6hPa Calm   4.0mph /  6.4km/h 15% 0.00in /  0mm 737.0 W/m2
13:16 75.7 °F /  24.3 °C 23.2 °F /  -4.9 °C 30.32in /  1026.6hPa Calm   7.0mph /  11.3km/h 14% 0.00in /  0mm 728.0 W/m2
13:22 75.7 °F /  24.3 °C 23.2 °F /  -4.9 °C 30.32in /  1026.6hPa Calm   4.0mph /  6.4km/h 14% 0.00in /  0mm 717.0 W/m2
13:28 75.7 °F /  24.3 °C 24.8 °F /  -4 °C 30.31in /  1026.3hPa North 2.9mph /  4.7km/h 5.0mph /  8km/h 15% 0.00in /  0mm 703.0 W/m2
13:34 75.9 °F /  24.4 °C 23.4 °F /  -4.8 °C 30.31in /  1026.3hPa Calm   3.0mph /  4.8km/h 14% 0.00in /  0mm 693.0 W/m2
13:40 75.7 °F /  24.3 °C 23.2 °F /  -4.9 °C 30.31in /  1026.3hPa Calm   6.0mph /  9.7km/h 14% 0.00in /  0mm 684.0 W/m2
13:47 76.1 °F /  24.5 °C 23.4 °F /  -4.8 °C 30.31in /  1026.3hPa North 0.9mph /  1.4km/h 7.0mph /  11.3km/h 14% 0.00in /  0mm 673.0 W/m2
13:53 76.5 °F /  24.7 °C 21.9 °F /  -5.6 °C 30.30in /  1026hPa West 0.9mph /  1.4km/h 5.0mph /  8km/h 13% 0.00in /  0mm 661.0 W/m2
13:59 76.1 °F /  24.5 °C 21.7 °F /  -5.7 °C 30.30in /  1026hPa SW 0.9mph /  1.4km/h 4.0mph /  6.4km/h 13% 0.00in /  0mm 647.0 W/m2
14:05 75.6 °F /  24.2 °C 23.0 °F /  -5 °C 30.30in /  1026hPa NNW 2.9mph /  4.7km/h 5.0mph /  8km/h 14% 0.00in /  0mm 631.0 W/m2
14:11 75.7 °F /  24.3 °C 21.4 °F /  -5.9 °C 30.30in /  1026hPa North 2.0mph /  3.2km/h 4.0mph /  6.4km/h 13% 0.00in /  0mm 619.0 W/m2
14:17 75.9 °F /  24.4 °C 21.6 °F /  -5.8 °C 30.29in /  1025.6hPa WSW 2.9mph /  4.7km/h 4.0mph /  6.4km/h 13% 0.00in /  0mm 601.0 W/m2
14:23 76.3 °F /  24.6 °C 21.7 °F /  -5.7 °C 30.29in /  1025.6hPa West 0.9mph /  1.4km/h 3.0mph /  4.8km/h 13% 0.00in /  0mm 585.0 W/m2
14:29 76.5 °F /  24.7 °C 21.9 °F /  -5.6 °C 30.29in /  1025.6hPa NW 2.0mph /  3.2km/h 2.0mph /  3.2km/h 13% 0.00in /  0mm 568.0 W/m2
14:35 76.6 °F /  24.8 °C 20.3 °F /  -6.5 °C 30.29in /  1025.6hPa Calm   3.0mph /  4.8km/h 12% 0.00in /  0mm 554.0 W/m2
14:42 76.8 °F /  24.9 °C 22.3 °F /  -5.4 °C 30.29in /  1025.6hPa WNW 2.9mph /  4.7km/h 3.0mph /  4.8km/h 13% 0.00in /  0mm 536.0 W/m2
14:48 77.2 °F /  25.1 °C 22.5 °F /  -5.3 °C 30.28in /  1025.3hPa Calm   2.0mph /  3.2km/h 13% 0.00in /  0mm 515.0 W/m2
14:54 76.8 °F /  24.9 °C 20.3 °F /  -6.5 °C 30.28in /  1025.3hPa WSW 0.9mph /  1.4km/h 2.0mph /  3.2km/h 12% 0.00in /  0mm 497.0 W/m2
15:00 76.5 °F /  24.7 °C 21.9 °F /  -5.6 °C 30.28in /  1025.3hPa Calm   4.0mph /  6.4km/h 13% 0.00in /  0mm 480.0 W/m2
15:08 76.6 °F /  24.8 °C 22.1 °F /  -5.5 °C 30.28in /  1025.3hPa Calm   2.0mph /  3.2km/h 13% 0.00in /  0mm 455.0 W/m2
15:14 76.8 °F /  24.9 °C 22.3 °F /  -5.4 °C 30.28in /  1025.3hPa Calm   4.0mph /  6.4km/h 13% 0.00in /  0mm 434.0 W/m2
15:20 77.2 °F /  25.1 °C 22.5 °F /  -5.3 °C 30.28in /  1025.3hPa SSE 0.9mph /  1.4km/h 2.0mph /  3.2km/h 13% 0.00in /  0mm 413.0 W/m2
15:27 77.2 °F /  25.1 °C 22.5 °F /  -5.3 °C 30.27in /  1024.9hPa SSE 2.9mph /  4.7km/h 3.0mph /  4.8km/h 13% 0.00in /  0mm 396.0 W/m2
15:33 77.2 °F /  25.1 °C 22.5 °F /  -5.3 °C 30.27in /  1024.9hPa SE 2.0mph /  3.2km/h 4.0mph /  6.4km/h 13% 0.00in /  0mm 374.0 W/m2
15:39 77.2 °F /  25.1 °C 22.5 °F /  -5.3 °C 30.27in /  1024.9hPa SSE 2.9mph /  4.7km/h 5.0mph /  8km/h 13% 0.00in /  0mm 353.0 W/m2
15:45 76.6 °F /  24.8 °C 22.1 °F /  -5.5 °C 30.27in /  1024.9hPa NW 4.0mph /  6.4km/h 4.0mph /  6.4km/h 13% 0.00in /  0mm 332.0 W/m2
15:51 76.5 °F /  24.7 °C 21.9 °F /  -5.6 °C 30.27in /  1024.9hPa Calm   2.0mph /  3.2km/h 13% 0.00in /  0mm 311.0 W/m2
15:57 76.5 °F /  24.7 °C 21.9 °F /  -5.6 °C 30.27in /  1024.9hPa NNE 2.0mph /  3.2km/h 8.0mph /  12.9km/h 13% 0.00in /  0mm 193.0 W/m2
16:03 75.9 °F /  24.4 °C 23.4 °F /  -4.8 °C 30.27in /  1024.9hPa South 0.9mph /  1.4km/h 3.0mph /  4.8km/h 14% 0.00in /  0mm 46.0 W/m2
16:09 75.6 °F /  24.2 °C 23.0 °F /  -5 °C 30.27in /  1024.9hPa Calm   2.0mph /  3.2km/h 14% 0.00in /  0mm 42.0 W/m2
16:16 75.4 °F /  24.1 °C 22.8 °F /  -5.1 °C 30.27in /  1024.9hPa Calm   4.0mph /  6.4km/h 14% 0.00in /  0mm 40.0 W/m2
16:22 75.2 °F /  24 °C 22.6 °F /  -5.2 °C 30.27in /  1024.9hPa NW 0.9mph /  1.4km/h 2.0mph /  3.2km/h 14% 0.00in /  0mm 56.0 W/m2
16:28 75.0 °F /  23.9 °C 22.6 °F /  -5.2 °C 30.27in /  1024.9hPa West 0.9mph /  1.4km/h 2.0mph /  3.2km/h 14% 0.00in /  0mm 35.0 W/m2
16:34 74.8 °F /  23.8 °C 22.5 °F /  -5.3 °C 30.27in /  1024.9hPa Calm   2.0mph /  3.2km/h 14% 0.00in /  0mm 63.0 W/m2
16:40 74.7 °F /  23.7 °C 22.3 °F /  -5.4 °C 30.27in /  1024.9hPa Calm   2.0mph /  3.2km/h 14% 0.00in /  0mm 39.0 W/m2
16:46 74.5 °F /  23.6 °C 22.1 °F /  -5.5 °C 30.27in /  1024.9hPa Calm   2.0mph /  3.2km/h 14% 0.00in /  0mm 28.0 W/m2
16:52 73.9 °F /  23.3 °C 23.4 °F /  -4.8 °C 30.28in /  1025.3hPa Calm     15% 0.00in /  0mm 39.0 W/m2
16:59 73.6 °F /  23.1 °C 23.0 °F /  -5 °C 30.28in /  1025.3hPa WNW 2.0mph /  3.2km/h 3.0mph /  4.8km/h 15% 0.00in /  0mm 40.0 W/m2
17:05 73.0 °F /  22.8 °C 22.6 °F /  -5.2 °C 30.28in /  1025.3hPa NNW 2.9mph /  4.7km/h 3.0mph /  4.8km/h 15% 0.00in /  0mm 21.0 W/m2
17:11 72.3 °F /  22.4 °C 22.1 °F /  -5.5 °C 30.28in /  1025.3hPa Calm   4.0mph /  6.4km/h 15% 0.00in /  0mm 18.0 W/m2
17:17 72.0 °F /  22.2 °C 21.7 °F /  -5.7 °C 30.28in /  1025.3hPa Calm   1.0mph /  1.6km/h 15% 0.00in /  0mm 12.0 W/m2
17:23 71.4 °F /  21.9 °C 22.8 °F /  -5.1 °C 30.28in /  1025.3hPa Calm     16% 0.00in /  0mm 11.0 W/m2
17:29 71.1 °F /  21.7 °C 22.6 °F /  -5.2 °C 30.28in /  1025.3hPa Calm     16% 0.00in /  0mm 7.0 W/m2
17:36 70.3 °F /  21.3 °C 23.5 °F /  -4.7 °C 30.29in /  1025.6hPa Calm     17% 0.00in /  0mm 0.0 W/m2
17:42 69.6 °F /  20.9 °C 22.8 °F /  -5.1 °C 30.29in /  1025.6hPa Calm     17% 0.00in /  0mm 0.0 W/m2
17:48 68.9 °F /  20.5 °C 23.7 °F /  -4.6 °C 30.29in /  1025.6hPa Calm     18% 0.00in /  0mm 0.0 W/m2
17:54 68.4 °F /  20.2 °C 23.2 °F /  -4.9 °C 30.30in /  1026hPa Calm     18% 0.00in /  0mm 0.0 W/m2
18:00 67.5 °F /  19.7 °C 23.7 °F /  -4.6 °C 30.30in /  1026hPa Calm     19% 0.00in /  0mm 0.0 W/m2
18:06 66.7 °F /  19.3 °C 23.2 °F /  -4.9 °C 30.30in /  1026hPa Calm     19% 0.00in /  0mm 0.0 W/m2
18:13 65.8 °F /  18.8 °C 23.7 °F /  -4.6 °C 30.30in /  1026hPa Calm     20% 0.00in /  0mm 0.0 W/m2
18:19 65.1 °F /  18.4 °C 24.3 °F /  -4.3 °C 30.30in /  1026hPa Calm     21% 0.00in /  0mm 0.0 W/m2
18:25 64.4 °F /  18 °C 23.5 °F /  -4.7 °C 30.30in /  1026hPa Calm     21% 0.00in /  0mm 0.0 W/m2
18:31 63.5 °F /  17.5 °C 21.7 °F /  -5.7 °C 30.30in /  1026hPa Calm     20% 0.00in /  0mm 0.0 W/m2
18:37 62.6 °F /  17 °C 22.1 °F /  -5.5 °C 30.31in /  1026.3hPa Calm     21% 0.00in /  0mm 0.0 W/m2
18:43 61.9 °F /  16.6 °C 21.6 °F /  -5.8 °C 30.30in /  1026hPa Calm     21% 0.00in /  0mm 0.0 W/m2
18:49 61.2 °F /  16.2 °C 21.9 °F /  -5.6 °C 30.31in /  1026.3hPa Calm   1.0mph /  1.6km/h 22% 0.00in /  0mm 0.0 W/m2
18:55 60.6 °F /  15.9 °C 22.6 °F /  -5.2 °C 30.31in /  1026.3hPa Calm     23% 0.00in /  0mm 0.0 W/m2
19:02 60.3 °F /  15.7 °C 22.3 °F /  -5.4 °C 30.31in /  1026.3hPa Calm     23% 0.00in /  0mm 0.0 W/m2
19:08 59.9 °F /  15.5 °C 23.0 °F /  -5 °C 30.31in /  1026.3hPa Calm     24% 0.00in /  0mm 0.0 W/m2
19:14 59.5 °F /  15.3 °C 22.6 °F /  -5.2 °C 30.32in /  1026.6hPa Calm     24% 0.00in /  0mm 0.0 W/m2
19:20 59.0 °F /  15 °C 22.3 °F /  -5.4 °C 30.32in /  1026.6hPa Calm     24% 0.00in /  0mm 0.0 W/m2
19:26 58.6 °F /  14.8 °C 21.9 °F /  -5.6 °C 30.32in /  1026.6hPa Calm     24% 0.00in /  0mm 0.0 W/m2
19:32 58.3 °F /  14.6 °C 22.6 °F /  -5.2 °C 30.32in /  1026.6hPa Calm     25% 0.00in /  0mm 0.0 W/m2
19:39 57.7 °F /  14.3 °C 22.1 °F /  -5.5 °C 30.32in /  1026.6hPa Calm     25% 0.00in /  0mm 0.0 W/m2
19:45 57.4 °F /  14.1 °C 21.9 °F /  -5.6 °C 30.33in /  1027hPa Calm     25% 0.00in /  0mm 0.0 W/m2
19:51 57.0 °F /  13.9 °C 22.5 °F /  -5.3 °C 30.33in /  1027hPa Calm     26% 0.00in /  0mm 0.0 W/m2
19:57 56.7 °F /  13.7 °C 21.2 °F /  -6 °C 30.33in /  1027hPa Calm   2.0mph /  3.2km/h 25% 0.00in /  0mm 0.0 W/m2
20:03 56.7 °F /  13.7 °C 21.2 °F /  -6 °C 30.33in /  1027hPa Calm     25% 0.00in /  0mm 0.0 W/m2
20:09 56.7 °F /  13.7 °C 21.2 °F /  -6 °C 30.33in /  1027hPa Calm   1.0mph /  1.6km/h 25% 0.00in /  0mm 0.0 W/m2
20:15 56.8 °F /  13.8 °C 21.4 °F /  -5.9 °C 30.33in /  1027hPa Calm     25% 0.00in /  0mm 0.0 W/m2
20:21 56.7 °F /  13.7 °C 21.2 °F /  -6 °C 30.33in /  1027hPa Calm   1.0mph /  1.6km/h 25% 0.00in /  0mm 0.0 W/m2
20:27 56.5 °F /  13.6 °C 21.9 °F /  -5.6 °C 30.33in /  1027hPa Calm     26% 0.00in /  0mm 0.0 W/m2
20:34 56.1 °F /  13.4 °C 21.7 °F /  -5.7 °C 30.33in /  1027hPa Calm     26% 0.00in /  0mm 0.0 W/m2
20:40 55.8 °F /  13.2 °C 21.4 °F /  -5.9 °C 30.33in /  1027hPa Calm     26% 0.00in /  0mm 0.0 W/m2
20:46 55.4 °F /  13 °C 21.0 °F /  -6.1 °C 30.33in /  1027hPa Calm     26% 0.00in /  0mm 0.0 W/m2
20:52 55.2 °F /  12.9 °C 20.8 °F /  -6.2 °C 30.33in /  1027hPa Calm   2.0mph /  3.2km/h 26% 0.00in /  0mm 0.0 W/m2
20:58 55.0 °F /  12.8 °C 20.8 °F /  -6.2 °C 30.33in /  1027hPa Calm   1.0mph /  1.6km/h 26% 0.00in /  0mm 0.0 W/m2
21:04 54.9 °F /  12.7 °C 20.7 °F /  -6.3 °C 30.33in /  1027hPa Calm   1.0mph /  1.6km/h 26% 0.00in /  0mm 0.0 W/m2
21:11 54.9 °F /  12.7 °C 21.6 °F /  -5.8 °C 30.33in /  1027hPa Calm   1.0mph /  1.6km/h 27% 0.00in /  0mm 0.0 W/m2
21:17 54.7 °F /  12.6 °C 21.4 °F /  -5.9 °C 30.34in /  1027.3hPa Calm     27% 0.00in /  0mm 0.0 W/m2
21:23 54.5 °F /  12.5 °C 21.2 °F /  -6 °C 30.34in /  1027.3hPa East 2.0mph /  3.2km/h 3.0mph /  4.8km/h 27% 0.00in /  0mm 0.0 W/m2
21:29 54.1 °F /  12.3 °C 20.8 °F /  -6.2 °C 30.34in /  1027.3hPa Calm     27% 0.00in /  0mm 0.0 W/m2
21:35 54.0 °F /  12.2 °C 20.7 °F /  -6.3 °C 30.34in /  1027.3hPa Calm     27% 0.00in /  0mm 0.0 W/m2
21:41 53.8 °F /  12.1 °C 21.4 °F /  -5.9 °C 30.35in /  1027.7hPa Calm     28% 0.00in /  0mm 0.0 W/m2
21:47 53.4 °F /  11.9 °C 21.2 °F /  -6 °C 30.34in /  1027.3hPa Calm     28% 0.00in /  0mm 0.0 W/m2
21:54 53.1 °F /  11.7 °C 20.8 °F /  -6.2 °C 30.34in /  1027.3hPa Calm     28% 0.00in /  0mm 0.0 W/m2
22:00 52.9 °F /  11.6 °C 21.6 °F /  -5.8 °C 30.34in /  1027.3hPa Calm     29% 0.00in /  0mm 0.0 W/m2
22:06 52.5 °F /  11.4 °C 21.2 °F /  -6 °C 30.34in /  1027.3hPa Calm     29% 0.00in /  0mm 0.0 W/m2
22:12 52.2 °F /  11.2 °C 20.8 °F /  -6.2 °C 30.34in /  1027.3hPa Calm     29% 0.00in /  0mm 0.0 W/m2
22:18 52.0 °F /  11.1 °C 20.7 °F /  -6.3 °C 30.34in /  1027.3hPa Calm     29% 0.00in /  0mm 0.0 W/m2
22:24 52.0 °F /  11.1 °C 20.7 °F /  -6.3 °C 30.34in /  1027.3hPa Calm     29% 0.00in /  0mm 0.0 W/m2
22:30 51.8 °F /  11 °C 20.5 °F /  -6.4 °C 30.34in /  1027.3hPa Calm     29% 0.00in /  0mm 0.0 W/m2
22:37 51.6 °F /  10.9 °C 20.3 °F /  -6.5 °C 30.34in /  1027.3hPa Calm     29% 0.00in /  0mm 0.0 W/m2
22:43 51.6 °F /  10.9 °C 21.2 °F /  -6 °C 30.34in /  1027.3hPa Calm     30% 0.00in /  0mm 0.0 W/m2
22:49 51.6 °F /  10.9 °C 21.2 °F /  -6 °C 30.35in /  1027.7hPa Calm     30% 0.00in /  0mm 0.0 W/m2
22:55 52.0 °F /  11.1 °C 20.7 °F /  -6.3 °C 30.34in /  1027.3hPa Calm     29% 0.00in /  0mm 0.0 W/m2
23:01 52.2 °F /  11.2 °C 20.8 °F /  -6.2 °C 30.34in /  1027.3hPa Calm     29% 0.00in /  0mm 0.0 W/m2
23:07 52.2 °F /  11.2 °C 21.7 °F /  -5.7 °C 30.34in /  1027.3hPa Calm     30% 0.00in /  0mm 0.0 W/m2
23:13 52.0 °F /  11.1 °C 21.6 °F /  -5.8 °C 30.34in /  1027.3hPa Calm     30% 0.00in /  0mm 0.0 W/m2
23:20 52.0 °F /  11.1 °C 21.6 °F /  -5.8 °C 30.34in /  1027.3hPa Calm     30% 0.00in /  0mm 0.0 W/m2
23:26 52.0 °F /  11.1 °C 21.6 °F /  -5.8 °C 30.34in /  1027.3hPa Calm     30% 0.00in /  0mm 0.0 W/m2
23:32 52.2 °F /  11.2 °C 20.8 °F /  -6.2 °C 30.34in /  1027.3hPa Calm     29% 0.00in /  0mm 0.0 W/m2
23:38 52.2 °F /  11.2 °C 21.7 °F /  -5.7 °C 30.34in /  1027.3hPa Calm     30% 0.00in /  0mm 0.0 W/m2
23:44 52.2 °F /  11.2 °C 21.7 °F /  -5.7 °C 30.34in /  1027.3hPa Calm     30% 0.00in /  0mm 0.0 W/m2
23:50 52.0 °F /  11.1 °C 21.6 °F /  -5.8 °C 30.34in /  1027.3hPa Calm     30% 0.00in /  0mm 0.0 W/m2
23:57 51.8 °F /  11 °C 21.4 °F /  -5.9 °C 30.34in /  1027.3hPa Calm     30% 0.00in /  0mm 0.0 W/m2
Olympia, Windhoek, Namibia
Compliments of Weather Underground - 3 mb